createdAt,value
2019-01-15T00:02:29.055Z,2.80
2019-01-15T00:05:00.639Z,2.80
2019-01-15T00:07:32.515Z,2.90
2019-01-15T00:10:05.497Z,2.90
2019-01-15T00:12:36.849Z,2.90
2019-01-15T00:15:08.521Z,2.90
2019-01-15T00:17:40.613Z,2.90
2019-01-15T00:20:12.113Z,2.90
2019-01-15T00:22:44.021Z,2.80
2019-01-15T00:25:15.697Z,2.80
2019-01-15T00:27:48.098Z,2.80
2019-01-15T00:30:19.723Z,2.80
2019-01-15T00:32:52.583Z,2.80
2019-01-15T00:35:23.998Z,2.80
2019-01-15T00:37:55.940Z,2.90
2019-01-15T00:40:27.891Z,2.90
2019-01-15T00:42:59.673Z,2.90
2019-01-15T00:45:31.026Z,2.90
2019-01-15T00:48:03.247Z,2.80
2019-01-15T00:50:35.643Z,2.80
2019-01-15T00:53:07.521Z,2.80
2019-01-15T00:55:39.953Z,2.80
2019-01-15T00:58:11.640Z,2.70
2019-01-15T01:00:43.061Z,2.70
2019-01-15T01:03:14.227Z,2.70
2019-01-15T01:05:45.577Z,2.70
2019-01-15T01:08:16.901Z,2.80
2019-01-15T01:10:49.336Z,2.90
2019-01-15T01:13:21.027Z,2.90
2019-01-15T01:15:52.810Z,2.90
2019-01-15T01:18:24.831Z,2.90
2019-01-15T01:20:56.431Z,2.90
2019-01-15T01:23:28.224Z,2.90
2019-01-15T01:25:59.743Z,2.90
2019-01-15T01:28:31.851Z,3.00
2019-01-15T01:31:03.691Z,3.00
2019-01-15T01:33:34.967Z,3.00
2019-01-15T01:36:06.666Z,3.00
2019-01-15T01:38:38.877Z,3.10
2019-01-15T01:41:10.470Z,3.10
2019-01-15T01:43:41.576Z,3.10
2019-01-15T01:46:12.577Z,3.10
2019-01-15T01:48:44.748Z,3.10
2019-01-15T01:51:17.504Z,3.10
2019-01-15T01:53:49.577Z,3.10
2019-01-15T01:56:21.639Z,3.10
2019-01-15T01:58:54.397Z,3.00
2019-01-15T02:01:25.734Z,3.00
2019-01-15T02:03:56.987Z,3.00
2019-01-15T02:06:28.877Z,3.00
2019-01-15T02:09:00.814Z,3.00
2019-01-15T02:11:33.176Z,3.00
2019-01-15T02:14:04.737Z,3.00
2019-01-15T02:16:36.713Z,3.00
2019-01-15T02:19:08.673Z,3.00
2019-01-15T02:21:40.341Z,3.10
2019-01-15T02:24:11.973Z,3.10
2019-01-15T02:26:44.198Z,3.10
2019-01-15T02:29:15.886Z,3.20
2019-01-15T02:31:46.926Z,3.20
2019-01-15T02:34:17.981Z,3.20
2019-01-15T02:36:49.770Z,3.20
2019-01-15T02:39:21.272Z,3.20
2019-01-15T02:41:53.072Z,3.30
2019-01-15T02:44:24.387Z,3.30
2019-01-15T02:46:56.018Z,3.30
2019-01-15T02:49:27.431Z,3.30
2019-01-15T02:51:58.708Z,3.30
2019-01-15T02:54:30.286Z,3.30
2019-01-15T02:57:02.202Z,3.30
2019-01-15T02:59:33.488Z,3.30
2019-01-15T03:02:05.265Z,3.30
2019-01-15T03:04:36.900Z,3.30
2019-01-15T03:07:07.960Z,3.30
2019-01-15T03:09:40.199Z,3.40
2019-01-15T03:12:11.791Z,3.40
2019-01-15T03:14:43.530Z,3.30
2019-01-15T03:17:15.120Z,3.30
2019-01-15T03:19:48.109Z,3.40
2019-01-15T03:22:20.063Z,3.40
2019-01-15T03:24:51.881Z,3.40
2019-01-15T03:27:23.831Z,3.40
2019-01-15T03:29:55.192Z,3.40
2019-01-15T03:32:26.459Z,3.40
2019-01-15T03:34:58.284Z,3.40
2019-01-15T03:37:30.059Z,3.40
2019-01-15T03:40:01.637Z,3.40
2019-01-15T03:42:32.969Z,3.40
2019-01-15T03:45:05.333Z,3.30
2019-01-15T03:47:36.655Z,3.40
2019-01-15T03:50:08.529Z,3.40
2019-01-15T03:52:39.904Z,3.30
2019-01-15T03:55:12.935Z,3.40
2019-01-15T03:57:44.665Z,3.40
2019-01-15T04:00:19.947Z,3.40
2019-01-15T04:02:51.507Z,3.40
2019-01-15T04:05:23.138Z,3.40
2019-01-15T04:07:57.229Z,3.40
2019-01-15T04:10:29.399Z,3.40
2019-01-15T04:13:01.458Z,3.30
2019-01-15T04:15:33.219Z,3.40
2019-01-15T04:18:04.711Z,3.40
2019-01-15T04:20:36.389Z,3.40
2019-01-15T04:23:07.883Z,3.40
2019-01-15T04:25:39.587Z,3.40
2019-01-15T04:28:10.601Z,3.40
2019-01-15T04:30:42.495Z,3.40
2019-01-15T04:33:14.171Z,3.40
2019-01-15T04:35:46.132Z,3.40
2019-01-15T04:38:17.991Z,3.40
2019-01-15T04:40:49.940Z,3.40
2019-01-15T04:43:21.825Z,3.50
2019-01-15T04:45:53.470Z,3.40
2019-01-15T04:48:24.803Z,3.40
2019-01-15T04:50:56.837Z,3.50
2019-01-15T04:53:28.538Z,3.40
2019-01-15T04:56:00.414Z,3.40
2019-01-15T04:58:31.744Z,3.40
2019-01-15T05:01:04.022Z,3.40
2019-01-15T05:03:35.033Z,3.50
2019-01-15T05:06:06.500Z,3.50
2019-01-15T05:08:39.039Z,3.50
2019-01-15T05:11:10.353Z,3.40
2019-01-15T05:13:42.263Z,3.40
2019-01-15T05:16:13.912Z,3.40
2019-01-15T05:18:46.194Z,3.40
2019-01-15T05:21:18.058Z,3.40
2019-01-15T05:23:52.272Z,3.40
2019-01-15T05:26:28.338Z,3.30
2019-01-15T05:29:01.005Z,3.40
2019-01-15T05:31:32.609Z,3.40
2019-01-15T05:34:04.033Z,3.40
2019-01-15T05:36:35.370Z,3.40
2019-01-15T05:39:09.096Z,3.40
2019-01-15T05:41:40.788Z,3.40
2019-01-15T05:44:12.355Z,3.30
2019-01-15T05:46:44.216Z,3.30
2019-01-15T05:49:15.686Z,3.40
2019-01-15T05:51:49.069Z,3.30
2019-01-15T05:54:26.256Z,3.30
2019-01-15T05:56:57.584Z,3.20
2019-01-15T05:59:28.853Z,3.20
2019-01-15T06:02:00.664Z,3.20
2019-01-15T06:04:32.387Z,3.10
2019-01-15T06:07:03.803Z,3.10
2019-01-15T06:09:35.173Z,3.10
2019-01-15T06:12:06.591Z,3.00
2019-01-15T06:14:38.168Z,3.00
2019-01-15T06:17:09.314Z,3.00
2019-01-15T06:19:40.892Z,2.90
2019-01-15T06:22:12.493Z,2.90
2019-01-15T06:24:44.342Z,2.90
2019-01-15T06:27:15.719Z,2.90
2019-01-15T06:29:48.098Z,2.80
2019-01-15T06:32:19.452Z,2.80
2019-01-15T06:34:51.101Z,2.80
2019-01-15T06:37:22.445Z,2.80
2019-01-15T06:39:54.003Z,2.90
2019-01-15T06:42:25.681Z,2.90
2019-01-15T06:44:57.089Z,2.90
2019-01-15T06:47:29.059Z,2.90
2019-01-15T06:50:01.195Z,2.80
2019-01-15T06:52:32.420Z,2.90
2019-01-15T06:55:05.282Z,2.80
2019-01-15T06:57:37.220Z,2.80
2019-01-15T07:00:15.485Z,3.00
2019-01-15T07:02:46.774Z,3.10
2019-01-15T07:05:19.116Z,3.10
2019-01-15T07:07:50.860Z,3.10
2019-01-15T07:10:34.972Z,3.10
2019-01-15T07:13:06.997Z,3.20
2019-01-15T07:15:38.623Z,3.20
2019-01-15T07:18:10.167Z,3.20
2019-01-15T07:20:41.519Z,3.20
2019-01-15T07:23:13.476Z,3.20
2019-01-15T07:25:45.596Z,3.20
2019-01-15T07:28:17.327Z,3.20
2019-01-15T07:30:55.002Z,3.10
2019-01-15T07:33:29.470Z,3.30
2019-01-15T07:36:00.931Z,3.40
2019-01-15T07:38:34.003Z,3.40
2019-01-15T07:41:06.017Z,3.40
2019-01-15T07:43:37.620Z,3.50
2019-01-15T07:46:09.230Z,3.60
2019-01-15T07:48:40.827Z,3.60
2019-01-15T07:51:12.175Z,3.70
2019-01-15T07:53:44.023Z,3.60
2019-01-15T07:56:15.685Z,3.70
2019-01-15T07:58:47.625Z,3.60
2019-01-15T08:01:20.391Z,3.70
2019-01-15T08:03:51.755Z,3.70
2019-01-15T08:06:23.430Z,3.60
2019-01-15T08:08:55.484Z,3.60
2019-01-15T08:11:27.184Z,3.60
2019-01-15T08:13:59.087Z,3.60
2019-01-15T08:16:31.167Z,3.60
2019-01-15T08:19:02.967Z,3.70
2019-01-15T08:21:34.334Z,3.60
2019-01-15T08:24:06.474Z,3.70
2019-01-15T08:26:37.903Z,3.70
2019-01-15T08:29:09.421Z,3.70
2019-01-15T08:31:41.063Z,3.70
2019-01-15T08:34:12.845Z,3.70
2019-01-15T08:36:46.150Z,3.70
2019-01-15T08:39:17.551Z,3.70
2019-01-15T08:41:50.212Z,3.70
2019-01-15T08:44:21.860Z,3.80
2019-01-15T08:46:52.872Z,3.80
2019-01-15T08:49:24.795Z,3.80
2019-01-15T08:51:56.691Z,3.80
2019-01-15T08:54:29.772Z,3.80
2019-01-15T08:57:01.858Z,3.80
2019-01-15T08:59:33.875Z,3.80
2019-01-15T09:02:05.328Z,3.90
2019-01-15T09:04:36.640Z,3.90
2019-01-15T09:07:08.596Z,4.00
2019-01-15T09:09:40.461Z,4.10
2019-01-15T09:12:11.850Z,4.20
2019-01-15T09:14:44.180Z,4.30
2019-01-15T09:17:15.477Z,4.40
2019-01-15T09:19:46.810Z,4.40
2019-01-15T09:22:19.075Z,4.50
2019-01-15T09:24:50.450Z,4.60
2019-01-15T09:27:21.844Z,4.80
2019-01-15T09:29:53.541Z,4.80
2019-01-15T09:32:25.019Z,4.90
2019-01-15T09:34:56.327Z,5.00
2019-01-15T09:37:27.926Z,5.10
2019-01-15T09:40:00.247Z,5.20
2019-01-15T09:42:34.812Z,5.20
2019-01-15T09:45:09.412Z,5.20
2019-01-15T09:47:43.264Z,5.10
2019-01-15T09:50:14.858Z,5.10
2019-01-15T09:52:46.450Z,5.00
2019-01-15T09:55:17.748Z,5.10
2019-01-15T09:57:49.646Z,5.10
2019-01-15T10:00:21.153Z,5.20
2019-01-15T10:02:52.733Z,5.30
2019-01-15T10:05:24.768Z,5.50
2019-01-15T10:07:56.957Z,5.60
2019-01-15T10:10:28.284Z,5.80
2019-01-15T10:13:00.183Z,5.80
2019-01-15T10:15:31.232Z,5.70
2019-01-15T10:18:02.975Z,5.70
2019-01-15T10:20:35.427Z,5.70
2019-01-15T10:23:07.255Z,5.80
2019-01-15T10:25:39.014Z,5.70
2019-01-15T10:28:12.020Z,5.80
2019-01-15T10:31:41.143Z,5.90
2019-01-15T10:34:21.432Z,6.00
2019-01-15T10:36:50.750Z,6.10
2019-01-15T10:39:22.896Z,6.20
2019-01-15T10:41:54.303Z,6.30
2019-01-15T10:44:25.907Z,6.40
2019-01-15T10:46:57.165Z,6.40
2019-01-15T10:49:28.961Z,6.40
2019-01-15T10:52:00.312Z,6.20
2019-01-15T10:54:33.238Z,6.20
2019-01-15T10:57:04.571Z,6.20
2019-01-15T10:59:36.596Z,6.30
2019-01-15T11:02:08.065Z,6.40
2019-01-15T11:04:39.710Z,6.40
2019-01-15T11:07:11.034Z,6.40
2019-01-15T11:09:42.814Z,6.30
2019-01-15T11:12:14.718Z,6.40
2019-01-15T11:14:47.250Z,6.40
2019-01-15T11:17:19.338Z,6.40
2019-01-15T11:19:50.944Z,6.40
2019-01-15T11:22:22.621Z,6.40
2019-01-15T11:24:54.467Z,6.40
2019-01-15T11:27:25.535Z,6.40
2019-01-15T11:29:56.912Z,6.50
2019-01-15T11:32:28.846Z,6.30
2019-01-15T11:35:00.499Z,6.20
2019-01-15T11:37:32.175Z,6.30
2019-01-15T11:40:05.162Z,6.30
2019-01-15T11:42:36.415Z,6.20
2019-01-15T11:45:09.592Z,6.20
2019-01-15T11:47:41.449Z,6.10
2019-01-15T11:50:16.323Z,6.20
2019-01-15T11:52:48.070Z,6.20
2019-01-15T11:55:21.323Z,6.30
2019-01-15T11:57:53.367Z,6.30
2019-01-15T12:00:45.210Z,6.40
2019-01-15T12:03:34.846Z,6.30
2019-01-15T12:06:22.813Z,6.30
2019-01-15T12:09:22.145Z,6.30
2019-01-15T12:12:18.250Z,6.30
2019-01-15T12:15:11.557Z,6.30
2019-01-15T12:18:11.008Z,6.40
2019-01-15T12:20:53.558Z,6.40
2019-01-15T12:23:44.338Z,6.50
2019-01-15T12:26:40.070Z,6.60
2019-01-15T12:29:26.594Z,6.60
2019-01-15T12:32:12.365Z,6.70
2019-01-15T12:35:08.435Z,6.70
2019-01-15T12:38:14.221Z,6.70
2019-01-15T12:41:03.708Z,6.70
2019-01-15T12:44:03.407Z,6.60
2019-01-15T12:46:52.818Z,6.60
2019-01-15T12:49:34.371Z,6.70
2019-01-15T12:52:24.823Z,6.70
2019-01-15T12:55:13.548Z,6.70
2019-01-15T12:58:16.305Z,6.70
2019-01-15T13:01:10.047Z,6.60
2019-01-15T13:03:55.780Z,6.50
2019-01-15T13:06:35.342Z,6.60
2019-01-15T13:09:28.038Z,6.50
2019-01-15T13:12:09.249Z,6.60
2019-01-15T13:14:58.954Z,6.50
2019-01-15T13:17:51.218Z,6.50
2019-01-15T13:20:47.316Z,6.40
2019-01-15T13:23:29.589Z,6.40
2019-01-15T13:26:15.787Z,6.40
2019-01-15T13:29:05.628Z,6.40
2019-01-15T13:32:02.079Z,6.40
2019-01-15T13:34:51.639Z,6.50
2019-01-15T13:37:54.169Z,6.40
2019-01-15T13:40:43.591Z,6.50
2019-01-15T13:43:39.522Z,6.50
2019-01-15T13:46:35.952Z,6.50
2019-01-15T13:49:25.431Z,6.50
2019-01-15T13:52:12.042Z,6.50
2019-01-15T13:55:00.812Z,6.40
2019-01-15T13:57:54.993Z,6.40
2019-01-15T14:00:34.842Z,6.40
2019-01-15T14:03:15.096Z,6.50
2019-01-15T14:06:11.399Z,6.50
2019-01-15T14:08:58.555Z,6.50
2019-01-15T14:11:49.998Z,6.50
2019-01-15T14:14:41.717Z,6.50
2019-01-15T14:17:35.116Z,6.50
2019-01-15T14:20:27.323Z,6.50
2019-01-15T14:23:16.694Z,6.50
2019-01-15T14:26:25.210Z,6.50
2019-01-15T14:29:15.133Z,6.50
2019-01-15T14:32:04.705Z,6.40
2019-01-15T14:35:07.991Z,6.40
2019-01-15T14:37:57.437Z,6.40
2019-01-15T14:40:53.601Z,6.30
2019-01-15T14:43:35.887Z,6.30
2019-01-15T14:46:25.610Z,6.30
2019-01-15T14:49:10.309Z,6.20
2019-01-15T14:51:55.629Z,6.20
2019-01-15T14:55:03.978Z,6.20
2019-01-15T14:57:59.877Z,6.20
2019-01-15T15:00:58.511Z,6.20
2019-01-15T15:03:57.611Z,6.20
2019-01-15T15:06:42.654Z,6.20
2019-01-15T15:09:33.176Z,6.20
2019-01-15T15:12:26.178Z,6.20
2019-01-15T15:15:21.669Z,6.20
2019-01-15T15:18:01.587Z,6.20
2019-01-15T15:20:40.654Z,6.20
2019-01-15T15:23:21.479Z,6.30
2019-01-15T15:26:18.267Z,6.20
2019-01-15T15:29:07.188Z,6.20
2019-01-15T15:31:56.903Z,6.20
2019-01-15T15:34:45.905Z,6.20
2019-01-15T15:37:35.092Z,6.20
2019-01-15T15:40:31.841Z,6.20
2019-01-15T15:43:21.856Z,6.20
2019-01-15T15:46:11.208Z,6.20
2019-01-15T15:48:53.503Z,6.20
2019-01-15T15:51:43.174Z,6.20
2019-01-15T15:54:32.438Z,6.20
2019-01-15T15:57:35.525Z,6.20
2019-01-15T16:00:32.208Z,6.10
2019-01-15T16:03:34.944Z,6.00
2019-01-15T16:06:19.664Z,6.00
2019-01-15T16:09:09.196Z,5.90
2019-01-15T16:12:05.040Z,5.90
2019-01-15T16:14:49.740Z,5.90
2019-01-15T16:17:31.507Z,6.00
2019-01-15T16:20:21.462Z,6.00
2019-01-15T16:23:24.607Z,6.10
2019-01-15T16:26:24.303Z,6.10
2019-01-15T16:29:04.545Z,6.20
2019-01-15T16:31:53.940Z,6.10
2019-01-15T16:34:37.648Z,6.10
2019-01-15T16:37:19.819Z,6.20
2019-01-15T16:40:07.690Z,6.20
2019-01-15T16:42:58.311Z,6.30
2019-01-15T16:45:48.962Z,6.30
2019-01-15T16:48:38.967Z,6.30
2019-01-15T16:51:35.309Z,6.30
2019-01-15T16:54:32.455Z,6.30
2019-01-15T16:57:24.286Z,6.40
2019-01-15T17:00:15.024Z,6.40
2019-01-15T17:02:58.622Z,6.40
2019-01-15T17:05:49.739Z,6.40
2019-01-15T17:08:36.267Z,6.40
2019-01-15T17:11:30.581Z,6.40
2019-01-15T17:14:18.369Z,6.40
2019-01-15T17:17:18.139Z,6.40
2019-01-15T17:20:10.527Z,6.40
2019-01-15T17:23:03.653Z,6.40
2019-01-15T17:25:43.800Z,6.40
2019-01-15T17:28:46.637Z,6.50
2019-01-15T17:31:35.698Z,6.50
2019-01-15T17:34:34.896Z,6.50
2019-01-15T17:37:20.765Z,6.50
2019-01-15T17:40:29.338Z,6.60
2019-01-15T17:43:18.613Z,6.60
2019-01-15T17:46:16.012Z,6.60
2019-01-15T17:49:06.300Z,6.60
2019-01-15T17:51:55.501Z,6.70
2019-01-15T17:54:44.352Z,6.60
2019-01-15T17:57:37.342Z,6.70
2019-01-15T18:00:34.938Z,6.70
2019-01-15T18:03:17.201Z,6.70
2019-01-15T18:06:01.486Z,6.70
2019-01-15T18:08:40.210Z,6.70
2019-01-15T18:11:20.982Z,6.70
2019-01-15T18:14:26.651Z,6.60
2019-01-15T18:17:20.226Z,6.60
2019-01-15T18:20:10.564Z,6.60
2019-01-15T18:23:11.014Z,6.60
2019-01-15T18:26:00.472Z,6.50
2019-01-15T18:28:48.360Z,6.50
2019-01-15T18:31:44.551Z,6.50
2019-01-15T18:34:41.248Z,6.50
2019-01-15T18:37:19.373Z,6.50
2019-01-15T18:40:08.546Z,6.50
2019-01-15T18:43:11.397Z,6.50
2019-01-15T18:45:56.695Z,6.50
2019-01-15T18:48:45.958Z,6.50
2019-01-15T18:51:39.046Z,6.50
2019-01-15T18:54:30.788Z,6.50
2019-01-15T18:57:20.239Z,6.50
2019-01-15T19:00:10.217Z,6.50
2019-01-15T19:03:06.846Z,6.40
2019-01-15T19:05:47.724Z,6.40
2019-01-15T19:08:35.360Z,6.40
2019-01-15T19:11:27.167Z,6.50
2019-01-15T19:14:08.984Z,6.50
2019-01-15T19:17:10.260Z,6.60
2019-01-15T19:20:10.310Z,6.60
2019-01-15T19:23:19.132Z,6.60
2019-01-15T19:26:15.892Z,6.60
2019-01-15T19:29:11.758Z,6.60
2019-01-15T19:32:04.617Z,6.50
2019-01-15T19:34:55.074Z,6.60
2019-01-15T19:37:38.644Z,6.60
2019-01-15T19:40:29.227Z,6.60
2019-01-15T19:43:29.016Z,6.60
2019-01-15T19:46:14.398Z,6.60
2019-01-15T19:49:04.972Z,6.60
2019-01-15T19:51:53.313Z,6.70
2019-01-15T19:54:41.234Z,6.70
2019-01-15T19:57:29.423Z,6.70
2019-01-15T20:00:25.711Z,6.70
2019-01-15T20:03:13.894Z,6.70
2019-01-15T20:06:03.261Z,6.70
2019-01-15T20:08:55.027Z,6.70
2019-01-15T20:11:37.434Z,6.70
2019-01-15T20:14:31.087Z,6.70
2019-01-15T20:17:31.657Z,6.80
2019-01-15T20:20:40.233Z,6.80
2019-01-15T20:23:28.324Z,6.80
2019-01-15T20:26:12.148Z,6.70
2019-01-15T20:28:56.603Z,6.80
2019-01-15T20:31:44.225Z,6.80
2019-01-15T20:34:33.836Z,6.80
2019-01-15T20:37:23.179Z,6.80
2019-01-15T20:40:04.760Z,6.80
2019-01-15T20:42:58.054Z,6.80
2019-01-15T20:45:47.571Z,6.80
2019-01-15T20:48:49.589Z,6.80
2019-01-15T20:51:30.239Z,6.80
2019-01-15T20:54:10.700Z,6.80
2019-01-15T20:56:55.553Z,6.80
2019-01-15T20:59:52.270Z,6.70
2019-01-15T21:02:41.848Z,6.80
2019-01-15T21:05:34.480Z,6.70
2019-01-15T21:08:35.931Z,6.80
2019-01-15T21:11:36.544Z,6.70
2019-01-15T21:14:22.930Z,6.70
2019-01-15T21:17:11.877Z,6.70
2019-01-15T21:20:18.107Z,6.70
2019-01-15T21:23:11.540Z,6.80
2019-01-15T21:25:54.613Z,6.80
2019-01-15T21:28:40.310Z,6.70
2019-01-15T21:31:29.332Z,6.70
2019-01-15T21:34:22.044Z,6.60
2019-01-15T21:37:18.294Z,6.70
2019-01-15T21:40:08.915Z,6.60
2019-01-15T21:42:58.395Z,6.60
2019-01-15T21:45:53.721Z,6.60
2019-01-15T21:48:45.661Z,6.70
2019-01-15T21:51:32.575Z,6.70
2019-01-15T21:54:35.640Z,6.70
2019-01-15T21:57:29.530Z,6.70
2019-01-15T22:00:21.063Z,6.70
2019-01-15T22:03:11.458Z,6.60
2019-01-15T22:05:50.996Z,6.70
2019-01-15T22:08:39.879Z,6.70
2019-01-15T22:11:29.714Z,6.70
2019-01-15T22:14:16.566Z,6.70
2019-01-15T22:17:06.011Z,6.70
2019-01-15T22:19:54.261Z,6.70
2019-01-15T22:22:46.989Z,6.60
2019-01-15T22:25:36.185Z,6.60
2019-01-15T22:28:28.825Z,6.50
2019-01-15T22:31:18.291Z,6.60
2019-01-15T22:34:05.581Z,6.60
2019-01-15T22:36:48.228Z,6.70
2019-01-15T22:39:35.515Z,6.60
2019-01-15T22:42:21.959Z,6.60
2019-01-15T22:45:10.623Z,6.60
2019-01-15T22:47:57.932Z,6.60
2019-01-15T22:50:47.184Z,6.60
2019-01-15T22:53:33.461Z,6.60
2019-01-15T22:56:26.997Z,6.50
2019-01-15T22:59:08.821Z,6.50
2019-01-15T23:02:07.016Z,6.50
2019-01-15T23:04:57.006Z,6.50
2019-01-15T23:07:50.003Z,6.40
2019-01-15T23:10:33.280Z,6.40
2019-01-15T23:13:30.209Z,6.40
2019-01-15T23:16:16.471Z,6.40
2019-01-15T23:19:11.921Z,6.40
2019-01-15T23:22:05.586Z,6.40
2019-01-15T23:24:54.773Z,6.40
2019-01-15T23:27:33.707Z,6.50
2019-01-15T23:30:32.899Z,6.50
2019-01-15T23:33:25.791Z,6.50
2019-01-15T23:36:28.616Z,6.50
2019-01-15T23:39:18.039Z,6.50
2019-01-15T23:42:10.988Z,6.40
2019-01-15T23:44:56.481Z,6.40
2019-01-15T23:47:42.437Z,6.40
2019-01-15T23:50:31.626Z,6.40
2019-01-15T23:53:16.585Z,6.40
2019-01-15T23:56:05.500Z,6.40
2019-01-15T23:58:44.457Z,6.40
